Wright, KS (67882)

2:21 AM CDT on September 05, 2015 (GMT -0500)
Summerlon | | Change Station
CLOSE
Current Station
Personal Weather Station
Location: Dodge City, KS
Elevation: 2586 ft
Nearby Weather Stations

Elev 2586 ft 37.78 °N, 100.00 °W | Updated 31 seconds ago

Clear
Clear
75.5 °F
Feels Like 78 °F
N
8.0
Wind Variable Wind from SSE
Gusts 13.0 mph

Today
High -- | Low -- °F
--% Chance of Precip.
Yesterday
High -- | Low -- °F
Precip. -- in
7:12 AM 8:03 PM
Waning Gibbous, 51% visible
Pressure 29.85 in
Visibility 10.0 miles
Clouds Clear
Heat Index 78 °F
Dew Point 61 °F
Humidity 61%
Rainfall 0.00 in
Snow Depth Not available.
UV 0 out of 12
Pollen 11.60 out of 12
Air Quality Not available.
Flu Activity Not available.
METAR KDDC 050652Z AUTO 17013KT 10SM CLR 24/14 A2995 RMK AO2 SLP106 T02390144
Pressure 29.85 in
Visibility 10.0 miles
Clouds Clear
Heat Index 78 °F
Dew Point 61 °F
Humidity 61%
Rainfall 0.00 in
Snow Depth Not available.
UV 0 out of 12
Pollen 11.60 out of 12
Air Quality Not available.
Flu Activity Not available.
METAR KDDC 050652Z AUTO 17013KT 10SM CLR 24/14 A2995 RMK AO2 SLP106 T02390144

10-Day Weather Forecast

×

Almanac

Astronomy

Sep. 05, 2015 Rise Set
Actual Time
Civil Twilight
Nautical Twilight
Astronomical Twilight
Moon
Length of Visible Light
Length of Day
Tomorrow will be .
, % of the Moon is Illuminated

Today's Extremes

State Highs State Lows

Community

WunderPhotos

Upload Photos

1,852,430 photos uploaded!

WunderBlogs® & News

Nearby

Air Quality

  Air Quality AQ Index Pollutant
Not available.

Snow Depth

Station Depth Elevation

Earthquake Activity

City Distance Mag. Time & Date
Minimum magnitude displayed is 2.5.

Coastal Water Temperatures

Place Temperature

Stations

Nearby Weather Stations

Station Location Temp. Windchill Dew Point Humidity Wind Precip. Elev Updated Type